Time;durP1;ratioP1;P1;durP2;ratioP2;P2;SDS_P1;SDS_P2;PMS_P1;PMS_P2;Temp;Humidity;BMP_temperature;BMP_pressure;BME280_temperature;BME280_humidity;BME280_pressure;Samples;Min_cycle;Max_cycle;Signal;HPM_P1;HPM_P2
2023/12/17 00:01:00;;;;;;;7.35;4.05;;;12.20;99.90;;;;;;4994673;28;20057;-21
2023/12/17 00:03:26;;;;;;;6.00;3.47;;;12.20;99.90;;;;;;5020692;28;20032;-20
2023/12/17 00:05:52;;;;;;;4.77;3.13;;;12.20;99.90;;;;;;5002325;28;20037;-21
2023/12/17 00:08:20;;;;;;;6.25;3.80;;;12.20;99.90;;;;;;4983711;28;20037;-20
2023/12/17 00:10:54;;;;;;;6.32;3.33;;;12.20;99.90;;;;;;4994302;28;20104;-20
2023/12/17 00:13:20;;;;;;;4.53;2.78;;;12.20;99.90;;;;;;5019429;28;20505;-20
2023/12/17 00:15:46;;;;;;;7.95;4.15;;;12.20;99.90;;;;;;5022254;28;20384;-20
2023/12/17 00:18:13;;;;;;;5.30;3.33;;;12.20;99.90;;;;;;5004033;28;20044;-20
2023/12/17 00:20:39;;;;;;;4.75;2.85;;;12.20;99.90;;;;;;4999133;28;20032;-20
2023/12/17 00:23:05;;;;;;;6.22;3.80;;;12.20;99.90;;;;;;5028223;28;20374;-21
2023/12/17 00:25:31;;;;;;;6.47;3.83;;;12.20;99.90;;;;;;5018073;28;20025;-20
2023/12/17 00:27:57;;;;;;;5.50;3.30;;;12.20;99.90;;;;;;5017731;28;20447;-21
2023/12/17 00:30:23;;;;;;;5.32;2.90;;;12.20;99.90;;;;;;4978901;28;20295;-19
2023/12/17 00:32:49;;;;;;;5.37;2.83;;;12.20;99.90;;;;;;5026164;28;20033;-21
2023/12/17 00:35:15;;;;;;;5.88;3.30;;;12.20;99.90;;;;;;5002210;28;20033;-21
2023/12/17 00:37:41;;;;;;;4.93;2.92;;;12.20;99.90;;;;;;5028971;28;20044;-20
2023/12/17 00:40:07;;;;;;;5.43;3.40;;;12.20;99.90;;;;;;5027613;28;20021;-21
2023/12/17 00:42:33;;;;;;;6.70;3.60;;;12.20;99.90;;;;;;5001762;28;20047;-21
2023/12/17 00:44:59;;;;;;;4.95;2.75;;;12.20;99.90;;;;;;5016578;28;20029;-21
2023/12/17 00:47:25;;;;;;;6.05;3.30;;;12.10;99.90;;;;;;5026661;28;20134;-20
2023/12/17 00:49:52;;;;;;;5.30;2.87;;;12.20;99.90;;;;;;5004301;28;20032;-20
2023/12/17 00:52:20;;;;;;;5.05;2.55;;;12.10;99.90;;;;;;5023737;28;20129;-20
2023/12/17 00:54:46;;;;;;;6.75;3.20;;;12.10;99.90;;;;;;5024645;28;20025;-21
2023/12/17 00:57:12;;;;;;;4.87;3.07;;;12.20;99.90;;;;;;5008084;28;20581;-20
2023/12/17 00:59:38;;;;;;;4.85;3.22;;;12.10;99.90;;;;;;5004690;28;20043;-19
2023/12/17 01:02:04;;;;;;;5.65;3.22;;;12.10;99.90;;;;;;5017220;28;20029;-20
2023/12/17 01:04:29;;;;;;;6.10;3.40;;;12.10;99.90;;;;;;4996890;28;20026;-20
2023/12/17 01:06:55;;;;;;;6.13;3.72;;;12.10;99.90;;;;;;5000928;28;20675;-21
2023/12/17 01:09:21;;;;;;;5.20;3.17;;;12.10;99.90;;;;;;5024956;28;20072;-20
2023/12/17 01:11:46;;;;;;;5.35;3.08;;;12.10;99.90;;;;;;4982548;28;20048;-21
2023/12/17 01:14:12;;;;;;;6.00;3.53;;;12.10;99.90;;;;;;5016611;28;20060;-20
2023/12/17 01:16:38;;;;;;;6.47;3.50;;;12.10;99.90;;;;;;5017939;28;20744;-20
2023/12/17 01:19:03;;;;;;;6.07;3.03;;;12.10;99.90;;;;;;4981113;28;20617;-20
2023/12/17 01:21:30;;;;;;;6.47;3.35;;;12.10;99.90;;;;;;5005457;28;20037;-20
2023/12/17 01:23:57;;;;;;;5.20;3.05;;;12.10;99.90;;;;;;5016641;28;20060;-21
2023/12/17 01:26:26;;;;;;;6.60;3.25;;;12.10;99.90;;;;;;5016516;28;20049;-20
2023/12/17 01:28:58;;;;;;;6.03;3.20;;;12.10;99.90;;;;;;5011086;28;20033;-21
2023/12/17 01:31:24;;;;;;;6.40;3.20;;;12.10;99.90;;;;;;5023482;28;20061;-20
2023/12/17 01:33:50;;;;;;;5.15;2.92;;;12.10;99.90;;;;;;5006428;28;20480;-20
2023/12/17 01:36:16;;;;;;;6.43;3.17;;;12.10;99.90;;;;;;5008829;28;20030;-20
2023/12/17 01:38:41;;;;;;;5.07;3.13;;;12.10;99.90;;;;;;5000642;28;20249;-21
2023/12/17 01:41:07;;;;;;;4.65;2.92;;;12.10;99.90;;;;;;5035664;28;20071;-21
2023/12/17 01:43:33;;;;;;;5.67;3.00;;;12.10;99.90;;;;;;5037042;28;20114;-20
2023/12/17 01:45:59;;;;;;;5.57;3.15;;;12.10;99.90;;;;;;4995265;28;20579;-20
2023/12/17 01:48:26;;;;;;;6.18;3.33;;;12.10;99.90;;;;;;5005860;28;20493;-21
2023/12/17 01:50:54;;;;;;;4.90;2.97;;;12.10;99.90;;;;;;5015940;28;20021;-19
2023/12/17 01:53:21;;;;;;;5.40;3.13;;;12.20;99.90;;;;;;4995251;28;20545;-20
2023/12/17 01:55:49;;;;;;;5.05;2.75;;;12.10;99.90;;;;;;5030467;28;20495;-20
2023/12/17 01:58:16;;;;;;;5.60;2.70;;;12.10;99.90;;;;;;5033724;28;20374;-20
2023/12/17 02:00:43;;;;;;;5.85;2.78;;;12.10;99.90;;;;;;5022317;28;20558;-20
2023/12/17 02:03:10;;;;;;;5.97;3.35;;;12.10;99.90;;;;;;5012865;28;20637;-20
2023/12/17 02:05:36;;;;;;;6.33;3.40;;;12.10;99.90;;;;;;5032547;28;20059;-21
2023/12/17 02:08:03;;;;;;;5.80;3.28;;;12.10;99.90;;;;;;5008382;28;20471;-20
2023/12/17 02:10:29;;;;;;;7.43;3.92;;;12.10;99.90;;;;;;5031966;28;20029;-21
2023/12/17 02:12:57;;;;;;;5.97;3.70;;;12.10;99.90;;;;;;5029896;28;20652;-21
2023/12/17 02:15:23;;;;;;;6.28;3.20;;;12.10;99.90;;;;;;5010939;28;20462;-21
2023/12/17 02:17:49;;;;;;;6.23;3.37;;;12.10;99.90;;;;;;5008363;28;20160;-20
2023/12/17 02:20:15;;;;;;;6.85;3.70;;;12.10;99.90;;;;;;5033827;28;20421;-20
2023/12/17 02:22:42;;;;;;;5.60;3.30;;;12.00;99.90;;;;;;5006488;28;20086;-20
2023/12/17 02:25:08;;;;;;;5.78;3.03;;;12.10;99.90;;;;;;5024699;28;20025;-20
2023/12/17 02:27:34;;;;;;;6.28;3.13;;;12.00;99.90;;;;;;5030361;28;20049;-21
2023/12/17 02:30:00;;;;;;;7.43;3.67;;;12.00;99.90;;;;;;5033970;28;20024;-20
2023/12/17 02:32:26;;;;;;;5.50;3.08;;;12.00;99.90;;;;;;5009329;28;20059;-21
2023/12/17 02:34:52;;;;;;;6.30;3.10;;;12.00;99.90;;;;;;5016060;28;20325;-20
2023/12/17 02:37:18;;;;;;;5.85;3.03;;;12.00;99.90;;;;;;5022127;28;20033;-21
2023/12/17 02:39:44;;;;;;;6.15;3.30;;;12.00;99.90;;;;;;5010140;28;20123;-21
2023/12/17 02:42:10;;;;;;;5.93;2.97;;;12.00;99.90;;;;;;5018179;28;20056;-20
2023/12/17 02:44:36;;;;;;;5.72;3.10;;;12.00;99.90;;;;;;5010701;28;20492;-20
2023/12/17 02:47:02;;;;;;;6.40;3.20;;;12.00;99.90;;;;;;5031976;28;20724;-20
2023/12/17 02:49:28;;;;;;;6.47;3.05;;;12.00;99.90;;;;;;5010625;28;20436;-21
2023/12/17 02:51:55;;;;;;;5.55;2.85;;;12.00;99.90;;;;;;5011346;28;20036;-20
2023/12/17 02:54:25;;;;;;;7.37;3.43;;;11.90;99.90;;;;;;4993675;28;20113;-21
2023/12/17 02:56:51;;;;;;;5.75;3.00;;;11.90;99.90;;;;;;5029272;28;20253;-20
2023/12/17 02:59:17;;;;;;;5.35;3.00;;;11.90;99.90;;;;;;5033251;28;20044;-21
2023/12/17 03:01:43;;;;;;;5.28;2.92;;;11.90;99.90;;;;;;5016710;28;20215;-20
2023/12/17 03:04:13;;;;;;;6.35;3.40;;;12.00;99.90;;;;;;5009998;28;20041;-21
2023/12/17 03:06:40;;;;;;;6.47;3.00;;;11.90;99.90;;;;;;5017671;28;20154;-20
2023/12/17 03:09:06;;;;;;;5.63;2.92;;;11.90;99.90;;;;;;5008758;28;20120;-20
2023/12/17 03:11:34;;;;;;;6.60;3.00;;;11.90;99.90;;;;;;5023454;28;20065;-21
2023/12/17 03:14:00;;;;;;;4.88;2.80;;;11.90;99.90;;;;;;5029785;28;20380;-20
2023/12/17 03:16:27;;;;;;;5.40;2.77;;;11.90;99.90;;;;;;5020210;28;20044;-21
2023/12/17 03:18:53;;;;;;;4.63;2.73;;;11.90;99.90;;;;;;5018107;28;20385;-20
2023/12/17 03:21:19;;;;;;;5.70;2.90;;;11.80;99.90;;;;;;5005310;28;20029;-21
2023/12/17 03:23:45;;;;;;;5.10;2.95;;;11.80;99.90;;;;;;5011166;28;20043;-20
2023/12/17 03:26:11;;;;;;;5.45;2.72;;;11.80;99.90;;;;;;4990557;28;20140;-21
2023/12/17 03:28:37;;;;;;;4.90;2.77;;;11.80;99.90;;;;;;5025281;28;20033;-20
2023/12/17 03:31:03;;;;;;;5.83;3.20;;;11.80;99.90;;;;;;5031395;28;20057;-20
2023/12/17 03:33:29;;;;;;;5.85;2.80;;;11.80;99.90;;;;;;5002177;28;20084;-21
2023/12/17 03:35:55;;;;;;;6.95;2.80;;;11.80;99.90;;;;;;5027542;28;20029;-20
2023/12/17 03:38:21;;;;;;;5.13;2.73;;;11.80;99.90;;;;;;5007804;28;20036;-21
2023/12/17 03:40:47;;;;;;;7.47;3.85;;;11.80;99.90;;;;;;4983069;28;20029;-20
2023/12/17 03:43:13;;;;;;;6.35;3.10;;;11.80;99.90;;;;;;5030155;28;20659;-20
2023/12/17 03:45:39;;;;;;;8.65;4.03;;;11.80;99.90;;;;;;4999264;28;20107;-20
2023/12/17 03:48:06;;;;;;;7.17;3.77;;;11.70;99.90;;;;;;5018480;28;20077;-21
2023/12/17 03:50:32;;;;;;;9.07;4.28;;;11.70;99.90;;;;;;4997877;28;20033;-21
2023/12/17 03:52:58;;;;;;;8.13;3.72;;;11.70;99.90;;;;;;5008415;28;20040;-20
2023/12/17 03:55:24;;;;;;;7.43;3.60;;;11.70;99.90;;;;;;4974806;28;20029;-21
2023/12/17 03:57:49;;;;;;;7.10;3.70;;;11.70;99.90;;;;;;5013897;28;20111;-20
2023/12/17 04:00:16;;;;;;;7.05;3.40;;;11.70;99.90;;;;;;5029433;28;20219;-20
2023/12/17 04:02:42;;;;;;;5.77;3.17;;;11.70;99.90;;;;;;5016357;28;20021;-20
2023/12/17 04:05:08;;;;;;;10.43;4.43;;;11.70;99.90;;;;;;5028648;28;20028;-20
2023/12/17 04:07:35;;;;;;;7.20;3.40;;;11.70;99.90;;;;;;5006837;28;20121;-21
2023/12/17 04:10:02;;;;;;;7.60;3.58;;;11.60;99.90;;;;;;5029781;28;20024;-20
2023/12/17 04:12:28;;;;;;;6.27;3.17;;;11.70;99.90;;;;;;5003476;28;20029;-21
2023/12/17 04:14:55;;;;;;;9.13;4.25;;;11.60;99.90;;;;;;5018016;28;20022;-20
2023/12/17 04:17:20;;;;;;;7.43;3.30;;;11.60;99.90;;;;;;5018852;28;20528;-21
2023/12/17 04:19:46;;;;;;;7.78;3.15;;;11.60;99.90;;;;;;5028269;28;20029;-20
2023/12/17 04:22:12;;;;;;;7.47;3.23;;;11.60;99.90;;;;;;5002497;28;20044;-20
2023/12/17 04:24:39;;;;;;;7.63;3.50;;;11.60;99.90;;;;;;5017177;28;20110;-20
2023/12/17 04:27:06;;;;;;;7.88;3.58;;;11.60;99.90;;;;;;5020899;28;20091;-21
2023/12/17 04:29:32;;;;;;;6.07;2.90;;;11.60;99.90;;;;;;5000660;28;20541;-21
2023/12/17 04:31:58;;;;;;;7.03;3.10;;;11.60;99.90;;;;;;5028209;28;20026;-20
2023/12/17 04:34:23;;;;;;;9.85;3.90;;;11.60;99.90;;;;;;5001522;28;20032;-21
2023/12/17 04:36:49;;;;;;;7.75;3.45;;;11.50;99.90;;;;;;4997076;28;20493;-20
2023/12/17 04:39:15;;;;;;;6.77;3.20;;;11.50;99.90;;;;;;5011935;28;20042;-20
2023/12/17 04:41:42;;;;;;;6.73;3.23;;;11.50;99.90;;;;;;5014223;28;20448;-20
2023/12/17 04:44:11;;;;;;;6.10;3.13;;;11.50;99.90;;;;;;5003619;28;20559;-23
2023/12/17 04:46:38;;;;;;;6.07;2.63;;;11.50;99.90;;;;;;5013485;28;20541;-23
2023/12/17 04:49:04;;;;;;;5.82;3.20;;;11.40;99.90;;;;;;5027757;28;20387;-23
2023/12/17 04:51:29;;;;;;;6.13;2.97;;;11.50;99.90;;;;;;5020863;28;20032;-23
2023/12/17 04:53:55;;;;;;;5.38;2.50;;;11.40;99.90;;;;;;4997123;28;20029;-23
2023/12/17 04:56:21;;;;;;;6.07;3.00;;;11.40;99.90;;;;;;5017389;28;20029;-23
2023/12/17 04:58:47;;;;;;;6.40;2.80;;;11.40;99.90;;;;;;5001934;28;20325;-23
2023/12/17 05:01:13;;;;;;;6.33;2.83;;;11.30;99.90;;;;;;5026993;28;20017;-23
2023/12/17 05:03:39;;;;;;;4.50;2.40;;;11.40;99.90;;;;;;5015442;28;20087;-23
2023/12/17 05:06:06;;;;;;;5.15;2.70;;;11.30;99.90;;;;;;5026014;28;20485;-23
2023/12/17 05:08:32;;;;;;;5.68;2.67;;;11.40;99.90;;;;;;4996246;28;20115;-23
2023/12/17 05:10:58;;;;;;;5.57;2.67;;;11.30;99.90;;;;;;5027068;28;20120;-23
2023/12/17 05:13:23;;;;;;;5.40;2.85;;;11.30;99.90;;;;;;5006103;28;20859;-23
2023/12/17 05:15:52;;;;;;;6.07;3.10;;;11.30;99.90;;;;;;5015473;28;20149;-23
2023/12/17 05:18:18;;;;;;;5.63;2.40;;;11.30;99.90;;;;;;5001229;28;20083;-23
2023/12/17 05:20:48;;;;;;;6.35;3.05;;;11.30;99.90;;;;;;5024976;28;20218;-23
2023/12/17 05:23:13;;;;;;;5.15;2.40;;;11.30;99.90;;;;;;4991009;28;20436;-23
2023/12/17 05:25:40;;;;;;;5.33;2.63;;;11.30;99.90;;;;;;5011674;28;20124;-23
2023/12/17 05:28:09;;;;;;;4.32;2.22;;;11.20;99.90;;;;;;5020196;28;20013;-23
2023/12/17 05:30:35;;;;;;;5.28;2.78;;;11.20;99.90;;;;;;5000606;28;20068;-23
2023/12/17 05:33:02;;;;;;;4.93;2.47;;;11.20;99.90;;;;;;5012696;28;20534;-23
2023/12/17 05:35:28;;;;;;;5.03;2.40;;;11.20;99.90;;;;;;4971806;28;20025;-23
2023/12/17 05:37:54;;;;;;;4.38;2.30;;;11.20;99.90;;;;;;5027640;28;20060;-23
2023/12/17 05:40:19;;;;;;;4.73;2.20;;;11.20;99.90;;;;;;5003712;28;20055;-23
2023/12/17 05:42:45;;;;;;;5.28;2.30;;;11.10;99.90;;;;;;5025969;28;20064;-23
2023/12/17 05:45:11;;;;;;;5.45;2.47;;;11.10;99.90;;;;;;5009706;28;20388;-23
2023/12/17 05:47:39;;;;;;;4.13;2.10;;;11.10;99.90;;;;;;5005646;28;20497;-23
2023/12/17 05:50:06;;;;;;;5.15;2.60;;;11.10;99.90;;;;;;5026041;28;20025;-23
2023/12/17 05:52:32;;;;;;;3.88;2.17;;;11.10;99.90;;;;;;4997644;28;20136;-23
2023/12/17 05:54:57;;;;;;;4.97;2.38;;;11.10;99.90;;;;;;4971531;28;20326;-21
2023/12/17 05:57:23;;;;;;;5.07;2.40;;;11.10;99.90;;;;;;5024569;28;20040;-21
2023/12/17 05:59:49;;;;;;;5.18;2.33;;;11.10;99.90;;;;;;5003031;28;20025;-21
2023/12/17 06:02:15;;;;;;;4.35;2.22;;;11.10;99.90;;;;;;4983737;28;20281;-21
2023/12/17 06:04:41;;;;;;;5.30;2.40;;;11.00;99.90;;;;;;5027961;28;20044;-21
2023/12/17 06:07:07;;;;;;;4.80;2.30;;;10.80;99.90;;;;;;5017099;28;20025;-20
2023/12/17 06:09:32;;;;;;;7.83;2.30;;;11.10;99.90;;;;;;5014563;28;20037;-21
2023/12/17 06:11:58;;;;;;;3.53;2.00;;;11.10;99.90;;;;;;5017327;28;20596;-20
2023/12/17 06:14:24;;;;;;;4.73;2.20;;;11.10;99.90;;;;;;5021145;28;20036;-20
2023/12/17 06:16:50;;;;;;;5.75;2.72;;;11.00;99.90;;;;;;4989178;28;20040;-21
2023/12/17 06:19:16;;;;;;;6.20;2.90;;;11.00;99.90;;;;;;5028582;28;20034;-21
2023/12/17 06:21:42;;;;;;;5.53;2.67;;;11.10;99.90;;;;;;4993982;28;20058;-21
2023/12/17 06:24:08;;;;;;;5.70;2.70;;;11.00;99.90;;;;;;5030031;28;20033;-20
2023/12/17 06:26:36;;;;;;;5.57;2.67;;;11.00;99.90;;;;;;5019353;28;20045;-20
2023/12/17 06:29:02;;;;;;;4.82;2.40;;;11.00;99.90;;;;;;5016892;28;20024;-20
2023/12/17 06:31:28;;;;;;;4.63;2.38;;;11.00;99.90;;;;;;5031521;28;20486;-20
2023/12/17 06:33:54;;;;;;;4.70;2.37;;;10.90;99.90;;;;;;5003033;28;20503;-21
2023/12/17 06:36:20;;;;;;;6.25;2.40;;;10.90;99.90;;;;;;5003143;28;20040;-21
2023/12/17 06:38:47;;;;;;;4.32;2.00;;;10.90;99.90;;;;;;5019468;28;20033;-21
2023/12/17 06:41:13;;;;;;;5.03;2.33;;;13.60;99.90;;;;;;5003975;28;20649;-20
2023/12/17 06:43:42;;;;;;;4.82;2.38;;;10.80;99.90;;;;;;5011977;28;20782;-21
2023/12/17 06:46:09;;;;;;;5.30;2.63;;;10.80;99.90;;;;;;5023113;28;20211;-20
2023/12/17 06:48:35;;;;;;;5.63;2.42;;;10.80;99.90;;;;;;5006516;28;20437;-20
2023/12/17 06:51:02;;;;;;;5.97;2.47;;;10.80;99.90;;;;;;5028404;28;20771;-20
2023/12/17 06:53:28;;;;;;;6.60;2.85;;;10.80;99.90;;;;;;5020032;28;20719;-20
2023/12/17 06:55:54;;;;;;;5.57;2.80;;;10.80;99.90;;;;;;4990122;28;20112;-21
2023/12/17 06:58:20;;;;;;;6.63;3.27;;;10.80;99.90;;;;;;5030898;28;20027;-20
2023/12/17 07:00:46;;;;;;;6.15;3.05;;;10.70;99.90;;;;;;5017990;28;20078;-21
2023/12/17 07:03:12;;;;;;;7.65;3.15;;;10.70;99.90;;;;;;5005257;28;20333;-20
2023/12/17 07:05:39;;;;;;;8.80;3.53;;;10.70;99.90;;;;;;5032022;28;20071;-20
2023/12/17 07:08:05;;;;;;;10.93;3.90;;;10.70;99.90;;;;;;5019822;28;20041;-21
2023/12/17 07:10:31;;;;;;;10.98;4.70;;;10.70;99.90;;;;;;5031383;28;20044;-20
2023/12/17 07:12:57;;;;;;;9.70;4.47;;;10.70;99.90;;;;;;4972146;28;20701;-21
2023/12/17 07:15:22;;;;;;;9.10;4.17;;;10.70;99.90;;;;;;5005750;28;20272;-20
2023/12/17 07:17:48;;;;;;;8.37;4.10;;;10.70;99.90;;;;;;5028785;28;20067;-21
2023/12/17 07:20:14;;;;;;;9.67;4.30;;;10.70;99.90;;;;;;4988399;28;20856;-20
2023/12/17 07:22:40;;;;;;;11.10;4.85;;;10.70;99.90;;;;;;5021385;28;20048;-21
2023/12/17 07:25:06;;;;;;;9.75;4.70;;;10.70;99.90;;;;;;5018794;28;20772;-20
2023/12/17 07:27:32;;;;;;;9.33;3.97;;;10.60;99.90;;;;;;5006417;28;20437;-20
2023/12/17 07:29:58;;;;;;;8.85;4.20;;;10.70;99.90;;;;;;5027515;28;20044;-20
2023/12/17 07:32:23;;;;;;;10.60;5.00;;;10.70;99.90;;;;;;5022256;28;20040;-20
2023/12/17 07:34:49;;;;;;;10.45;5.13;;;10.70;99.90;;;;;;4996462;28;20025;-21
2023/12/17 07:37:16;;;;;;;9.70;4.57;;;10.70;99.90;;;;;;5021657;28;20527;-21
2023/12/17 07:39:42;;;;;;;11.35;4.72;;;10.70;99.90;;;;;;5016095;28;20033;-21
2023/12/17 07:42:08;;;;;;;11.30;5.30;;;10.70;99.90;;;;;;5026572;28;20587;-21
2023/12/17 07:44:34;;;;;;;11.03;5.00;;;10.70;99.90;;;;;;5000506;28;20041;-20
2023/12/17 07:47:00;;;;;;;12.27;5.28;;;10.70;99.90;;;;;;4999408;28;20052;-20
2023/12/17 07:49:26;;;;;;;13.07;5.63;;;10.70;99.90;;;;;;5033651;28;20056;-20
2023/12/17 07:51:52;;;;;;;10.67;4.87;;;9.90;99.90;;;;;;5006657;28;20672;-21
2023/12/17 07:54:18;;;;;;;12.65;5.38;;;10.70;99.90;;;;;;5017329;28;20023;-20
2023/12/17 07:56:44;;;;;;;11.88;5.30;;;10.60;99.90;;;;;;5027632;28;20378;-21
2023/12/17 07:59:10;;;;;;;12.87;5.43;;;10.60;99.90;;;;;;5015911;28;20908;-20
2023/12/17 08:01:36;;;;;;;11.02;4.85;;;10.60;99.90;;;;;;5016196;28;20211;-20
2023/12/17 08:04:03;;;;;;;12.13;5.35;;;10.60;99.90;;;;;;5015849;28;20040;-20
2023/12/17 08:06:28;;;;;;;10.07;4.63;;;10.60;99.90;;;;;;4994278;28;20035;-20
2023/12/17 08:08:55;;;;;;;11.37;5.00;;;10.60;99.90;;;;;;4997338;28;20410;-21
2023/12/17 08:11:21;;;;;;;9.25;4.70;;;10.50;99.90;;;;;;5029971;28;20032;-20
2023/12/17 08:13:47;;;;;;;9.27;4.35;;;10.50;99.90;;;;;;5013719;28;20441;-21
2023/12/17 08:16:13;;;;;;;10.48;4.72;;;10.50;99.90;;;;;;5004148;28;20232;-20
2023/12/17 08:18:39;;;;;;;9.57;3.67;;;10.50;99.90;;;;;;5000120;28;20076;-21
2023/12/17 08:21:05;;;;;;;11.65;5.07;;;10.50;99.90;;;;;;5025606;28;20151;-20
2023/12/17 08:23:30;;;;;;;9.23;4.53;;;10.50;99.90;;;;;;4985284;28;20033;-20
2023/12/17 08:25:56;;;;;;;13.60;5.47;;;10.50;99.90;;;;;;5015770;28;20057;-21
2023/12/17 08:28:23;;;;;;;11.98;4.93;;;10.50;99.90;;;;;;5029914;28;20055;-20
2023/12/17 08:30:49;;;;;;;11.65;5.13;;;10.50;99.90;;;;;;5002248;28;20029;-21
2023/12/17 08:33:15;;;;;;;13.38;5.50;;;10.40;99.90;;;;;;5022616;28;20060;-20
2023/12/17 08:35:43;;;;;;;11.63;5.07;;;10.40;99.90;;;;;;5003713;28;20596;-20
2023/12/17 08:38:09;;;;;;;12.38;5.03;;;10.40;99.90;;;;;;5004438;28;20034;-20
2023/12/17 08:40:40;;;;;;;12.63;4.93;;;10.30;99.90;;;;;;5004343;28;20037;-21
2023/12/17 08:43:06;;;;;;;11.95;4.57;;;10.30;99.90;;;;;;5029377;28;20033;-20
2023/12/17 08:45:33;;;;;;;10.70;4.70;;;10.20;99.90;;;;;;5024171;28;20037;-21
2023/12/17 08:48:00;;;;;;;9.07;3.70;;;10.20;99.90;;;;;;5019169;28;20024;-20
2023/12/17 08:50:26;;;;;;;9.98;4.10;;;10.20;99.90;;;;;;5013880;28;20038;-21
2023/12/17 08:52:52;;;;;;;13.10;4.35;;;10.10;99.90;;;;;;4998249;28;20426;-20
2023/12/17 08:55:19;;;;;;;11.45;4.45;;;10.10;99.90;;;;;;5019208;28;20028;-21
2023/12/17 08:57:46;;;;;;;8.63;4.17;;;10.10;99.90;;;;;;4997409;28;20056;-20
2023/12/17 09:00:13;;;;;;;8.48;3.83;;;10.10;99.90;;;;;;5028521;28;20037;-20
2023/12/17 09:02:39;;;;;;;12.75;4.70;;;10.10;99.90;;;;;;5015531;28;20990;-20
2023/12/17 09:05:06;;;;;;;10.25;4.28;;;10.20;99.90;;;;;;5016147;28;20020;-20
2023/12/17 09:07:32;;;;;;;12.55;4.85;;;10.20;99.90;;;;;;5011742;28;20036;-21
2023/12/17 09:09:58;;;;;;;14.37;6.23;;;10.30;99.90;;;;;;4977866;28;20040;-20
2023/12/17 09:12:24;;;;;;;15.55;6.05;;;10.30;99.90;;;;;;5025058;28;20028;-21
2023/12/17 09:14:50;;;;;;;12.68;5.97;;;10.30;99.90;;;;;;4995991;28;20190;-20
2023/12/17 09:17:16;;;;;;;13.18;5.57;;;10.40;99.90;;;;;;4997616;28;20033;-20
2023/12/17 09:19:42;;;;;;;14.07;5.87;;;10.50;99.90;;;;;;5002443;28;20028;-21
2023/12/17 09:22:08;;;;;;;13.52;5.72;;;10.50;99.90;;;;;;5001307;28;20095;-21
2023/12/17 09:24:34;;;;;;;16.45;6.10;;;10.60;99.90;;;;;;4986771;28;20743;-20
2023/12/17 09:27:01;;;;;;;17.67;6.60;;;10.80;99.90;;;;;;5016521;28;20364;-21
2023/12/17 09:29:27;;;;;;;14.33;6.10;;;11.00;99.90;;;;;;5024369;28;20375;-20
2023/12/17 09:31:53;;;;;;;15.10;5.90;;;11.20;99.90;;;;;;5025130;28;20033;-21
2023/12/17 09:34:19;;;;;;;12.60;4.97;;;11.40;99.90;;;;;;4998345;28;20965;-20
2023/12/17 09:36:45;;;;;;;9.93;4.90;;;11.60;99.90;;;;;;5015783;28;20045;-20
2023/12/17 09:39:11;;;;;;;11.10;5.20;;;11.80;99.90;;;;;;4984843;28;20514;-21
2023/12/17 09:41:37;;;;;;;9.02;4.50;;;12.00;99.90;;;;;;5001317;28;20577;-20
2023/12/17 09:44:05;;;;;;;10.18;4.70;;;12.30;99.90;;;;;;5025392;28;20498;-21
2023/12/17 09:46:30;;;;;;;7.63;4.17;;;12.60;99.90;;;;;;5011905;28;20621;-20
2023/12/17 09:48:57;;;;;;;9.98;5.00;;;12.80;99.90;;;;;;5026581;28;20033;-20
2023/12/17 09:51:27;;;;;;;9.30;4.57;;;13.20;99.90;;;;;;5020319;28;20706;-20
2023/12/17 09:53:54;;;;;;;11.60;5.30;;;13.50;99.90;;;;;;4991137;28;21447;-20
2023/12/17 09:56:20;;;;;;;7.50;4.30;;;13.80;99.90;;;;;;4991795;28;20056;-21
2023/12/17 09:58:46;;;;;;;8.25;4.03;;;14.20;99.90;;;;;;5003826;28;20514;-20
2023/12/17 10:01:12;;;;;;;9.30;4.43;;;14.50;99.90;;;;;;5032113;28;20087;-21
2023/12/17 10:03:38;;;;;;;7.80;3.97;;;14.80;99.90;;;;;;5004181;28;20437;-21
2023/12/17 10:06:04;;;;;;;7.40;4.40;;;15.20;99.90;;;;;;5024061;28;20060;-21
2023/12/17 10:08:30;;;;;;;9.32;4.47;;;15.50;99.90;;;;;;5017075;28;20037;-21
2023/12/17 10:10:56;;;;;;;6.25;3.55;;;15.80;99.90;;;;;;5001279;28;20647;-20
2023/12/17 10:13:22;;;;;;;7.23;3.93;;;16.10;99.90;;;;;;5005575;28;20041;-21
2023/12/17 10:15:53;;;;;;;8.80;4.20;;;16.30;99.90;;;;;;5005488;28;20238;-20
2023/12/17 10:18:19;;;;;;;6.80;3.65;;;16.60;99.90;;;;;;5018473;28;20029;-21
2023/12/17 10:20:45;;;;;;;9.25;3.38;;;16.80;99.90;;;;;;5022657;28;20032;-21
2023/12/17 10:23:12;;;;;;;7.23;4.10;;;17.00;99.90;;;;;;5024377;28;20104;-20
2023/12/17 10:25:39;;;;;;;7.38;3.70;;;17.20;99.90;;;;;;4991639;28;20076;-21
2023/12/17 10:28:04;;;;;;;7.20;3.38;;;17.30;99.90;;;;;;4961995;28;20052;-20
2023/12/17 10:30:34;;;;;;;6.57;3.38;;;17.40;99.90;;;;;;5006908;28;20771;-21
2023/12/17 10:33:01;;;;;;;7.43;3.33;;;17.50;99.90;;;;;;5032060;28;20550;-21
2023/12/17 10:35:27;;;;;;;7.32;3.28;;;17.50;99.90;;;;;;5019533;28;20418;-21
2023/12/17 10:37:57;;;;;;;6.50;3.13;;;17.60;99.90;;;;;;5011674;28;20386;-20
2023/12/17 10:40:24;;;;;;;7.50;3.20;;;17.60;99.90;;;;;;4990920;28;20085;-21
2023/12/17 10:42:50;;;;;;;6.00;2.90;;;17.70;99.90;;;;;;4996019;28;20044;-21
2023/12/17 10:45:21;;;;;;;5.73;2.87;;;17.80;99.90;;;;;;5026606;28;20040;-21
2023/12/17 10:47:56;;;;;;;6.97;3.00;;;17.90;99.90;;;;;;5007165;28;20028;-21
2023/12/17 10:50:22;;;;;;;7.30;3.47;;;18.10;99.90;;;;;;5028980;28;20072;-21
2023/12/17 10:52:49;;;;;;;7.97;3.42;;;18.30;99.90;;;;;;5021540;28;20468;-20
2023/12/17 10:55:19;;;;;;;8.02;3.08;;;18.40;99.90;;;;;;5020165;28;20558;-21
2023/12/17 10:57:52;;;;;;;6.20;3.20;;;18.40;99.90;;;;;;5006711;28;20218;-21
2023/12/17 11:00:21;;;;;;;8.38;2.95;;;18.50;99.90;;;;;;5016903;28;20052;-21
2023/12/17 11:02:51;;;;;;;7.45;2.67;;;18.60;99.90;;;;;;4994649;28;20095;-21
2023/12/17 11:05:17;;;;;;;7.15;2.80;;;18.70;99.90;;;;;;5012757;28;20020;-21
2023/12/17 11:07:43;;;;;;;8.30;2.80;;;18.90;99.90;;;;;;5000977;28;20056;-21
2023/12/17 11:10:13;;;;;;;6.10;2.90;;;19.10;99.90;;;;;;5002875;28;20049;-20
2023/12/17 11:12:40;;;;;;;6.75;2.85;;;19.30;99.90;;;;;;5023357;28;20556;-21
2023/12/17 11:15:06;;;;;;;5.60;2.95;;;19.40;99.90;;;;;;5000759;28;20698;-21
2023/12/17 11:17:32;;;;;;;7.03;2.72;;;19.50;99.90;;;;;;5030796;28;20044;-21
2023/12/17 11:20:02;;;;;;;5.93;2.53;;;19.60;99.90;;;;;;5012174;28;20021;-21
2023/12/17 11:22:28;;;;;;;5.20;2.30;;;19.60;99.90;;;;;;5018572;28;20048;-21
2023/12/17 11:24:56;;;;;;;7.57;2.45;;;19.60;99.90;;;;;;5018591;28;20056;-21
2023/12/17 11:27:23;;;;;;;5.43;2.50;;;19.70;99.90;;;;;;4982359;28;20090;-21
2023/12/17 11:29:50;;;;;;;7.27;2.50;;;19.70;99.90;;;;;;4961833;28;20044;-21
2023/12/17 11:32:21;;;;;;;9.25;2.50;;;19.80;99.90;;;;;;5031873;28;20025;-21
2023/12/17 11:34:49;;;;;;;8.25;2.83;;;19.70;99.90;;;;;;5026991;28;20100;-21
2023/12/17 11:37:19;;;;;;;10.18;3.03;;;19.80;99.90;;;;;;5003185;28;20028;-21
2023/12/17 11:39:47;;;;;;;7.72;2.70;;;19.80;99.90;;;;;;4992564;28;20052;-21
2023/12/17 11:42:18;;;;;;;5.63;2.60;;;19.80;99.90;;;;;;5003429;28;20083;-21
2023/12/17 11:44:48;;;;;;;6.93;2.65;;;19.80;99.90;;;;;;4978306;28;20036;-22
2023/12/17 11:47:15;;;;;;;5.10;2.45;;;19.80;99.90;;;;;;5018883;28;20085;-23
2023/12/17 11:49:42;;;;;;;5.35;2.50;;;19.70;99.90;;;;;;5027599;28;20067;-23
2023/12/17 11:52:20;;;;;;;5.80;2.80;;;19.70;99.90;;;;;;5029542;28;20033;-23
2023/12/17 11:54:47;;;;;;;6.40;2.60;;;19.70;99.90;;;;;;5015952;28;20885;-23
2023/12/17 11:57:22;;;;;;;5.63;2.53;;;19.40;99.90;;;;;;5019386;28;20584;-23
2023/12/17 11:59:48;;;;;;;5.90;2.67;;;19.30;99.90;;;;;;4998091;28;20721;-23
2023/12/17 12:02:19;;;;;;;6.50;2.80;;;19.10;99.90;;;;;;4978289;28;20305;-23
2023/12/17 12:04:46;;;;;;;5.20;2.50;;;18.90;99.90;;;;;;4989854;28;20522;-23
2023/12/17 12:07:18;;;;;;;6.17;2.33;;;18.70;99.90;;;;;;5010778;28;20029;-23
2023/12/17 12:09:45;;;;;;;4.55;2.47;;;18.60;99.90;;;;;;5026045;28;20046;-23
2023/12/17 12:12:23;;;;;;;4.45;2.17;;;18.40;99.90;;;;;;5002718;28;20766;-23
2023/12/17 12:14:50;;;;;;;6.72;2.65;;;18.20;99.90;;;;;;5024016;28;20017;-23
2023/12/17 12:17:36;;;;;;;5.28;2.35;;;18.10;99.90;;;;;;4991290;28;20013;-23
2023/12/17 12:20:04;;;;;;;5.07;2.70;;;17.90;99.90;;;;;;5028902;28;20021;-23
2023/12/17 12:22:29;;;;;;;6.70;2.38;;;17.80;99.90;;;;;;5009668;28;20020;-23
2023/12/17 12:24:56;;;;;;;4.50;2.35;;;17.80;99.90;;;;;;5019201;28;20029;-23
2023/12/17 12:27:22;;;;;;;4.43;2.17;;;17.60;99.90;;;;;;5006845;28;20229;-23
2023/12/17 12:29:48;;;;;;;5.20;2.47;;;17.60;99.90;;;;;;5012795;28;20544;-23
2023/12/17 12:32:27;;;;;;;5.32;2.63;;;17.50;99.90;;;;;;4983739;28;20111;-23
2023/12/17 12:34:53;;;;;;;5.22;2.80;;;17.50;99.90;;;;;;5029210;28;20121;-23
2023/12/17 12:37:32;;;;;;;5.55;2.70;;;17.40;99.90;;;;;;4995916;28;20045;-23
2023/12/17 12:39:58;;;;;;;5.63;2.80;;;17.40;99.90;;;;;;5032072;28;20111;-23
2023/12/17 12:42:23;;;;;;;5.47;2.60;;;17.30;99.90;;;;;;4997289;28;20624;-23